sensor_id;sensor_type;location;lat;lon;timestamp;P1;durP1;ratioP1;P2;durP2;ratioP2
17259;SDS011;8746;49.230;9.220;2023-10-13T00:02:05;17.90;;;13.73;;
17259;SDS011;8746;49.230;9.220;2023-10-13T00:04:31;16.50;;;14.10;;
17259;SDS011;8746;49.230;9.220;2023-10-13T00:07:01;16.73;;;14.00;;
17259;SDS011;8746;49.230;9.220;2023-10-13T00:09:27;17.67;;;13.83;;
17259;SDS011;8746;49.230;9.220;2023-10-13T00:12:03;16.10;;;13.37;;
17259;SDS011;8746;49.230;9.220;2023-10-13T00:14:38;18.17;;;13.40;;
17259;SDS011;8746;49.230;9.220;2023-10-13T00:17:06;15.30;;;12.87;;
17259;SDS011;8746;49.230;9.220;2023-10-13T00:19:36;19.13;;;13.80;;
17259;SDS011;8746;49.230;9.220;2023-10-13T00:22:07;16.97;;;13.50;;
17259;SDS011;8746;49.230;9.220;2023-10-13T00:24:37;17.97;;;13.13;;
17259;SDS011;8746;49.230;9.220;2023-10-13T00:27:10;14.73;;;13.00;;
17259;SDS011;8746;49.230;9.220;2023-10-13T00:29:53;18.87;;;12.80;;
17259;SDS011;8746;49.230;9.220;2023-10-13T00:32:39;20.13;;;12.67;;
17259;SDS011;8746;49.230;9.220;2023-10-13T00:35:08;19.57;;;13.83;;
17259;SDS011;8746;49.230;9.220;2023-10-13T00:37:35;17.30;;;13.13;;
17259;SDS011;8746;49.230;9.220;2023-10-13T00:40:08;15.40;;;12.50;;
17259;SDS011;8746;49.230;9.220;2023-10-13T00:42:43;16.27;;;12.57;;
17259;SDS011;8746;49.230;9.220;2023-10-13T00:45:17;16.97;;;13.50;;
17259;SDS011;8746;49.230;9.220;2023-10-13T00:47:43;16.60;;;12.17;;
17259;SDS011;8746;49.230;9.220;2023-10-13T00:50:21;18.77;;;12.40;;
17259;SDS011;8746;49.230;9.220;2023-10-13T00:52:48;16.00;;;13.43;;
17259;SDS011;8746;49.230;9.220;2023-10-13T00:55:19;17.80;;;13.77;;
17259;SDS011;8746;49.230;9.220;2023-10-13T00:57:51;15.60;;;12.37;;
17259;SDS011;8746;49.230;9.220;2023-10-13T01:00:18;15.40;;;11.87;;
17259;SDS011;8746;49.230;9.220;2023-10-13T01:02:47;14.40;;;12.27;;
17259;SDS011;8746;49.230;9.220;2023-10-13T01:05:20;16.10;;;12.57;;
17259;SDS011;8746;49.230;9.220;2023-10-13T01:07:50;16.27;;;12.57;;
17259;SDS011;8746;49.230;9.220;2023-10-13T01:10:19;17.00;;;13.50;;
17259;SDS011;8746;49.230;9.220;2023-10-13T01:12:50;16.70;;;13.20;;
17259;SDS011;8746;49.230;9.220;2023-10-13T01:15:17;16.53;;;12.67;;
17259;SDS011;8746;49.230;9.220;2023-10-13T01:17:54;15.30;;;13.53;;
17259;SDS011;8746;49.230;9.220;2023-10-13T01:20:30;19.97;;;14.20;;
17259;SDS011;8746;49.230;9.220;2023-10-13T01:22:57;17.87;;;13.47;;
17259;SDS011;8746;49.230;9.220;2023-10-13T01:25:22;17.70;;;12.80;;
17259;SDS011;8746;49.230;9.220;2023-10-13T01:27:52;17.87;;;13.17;;
17259;SDS011;8746;49.230;9.220;2023-10-13T01:30:18;16.53;;;13.93;;
17259;SDS011;8746;49.230;9.220;2023-10-13T01:32:51;15.93;;;13.03;;
17259;SDS011;8746;49.230;9.220;2023-10-13T01:35:19;16.73;;;13.80;;
17259;SDS011;8746;49.230;9.220;2023-10-13T01:37:49;15.63;;;13.07;;
17259;SDS011;8746;49.230;9.220;2023-10-13T01:40:15;15.13;;;12.93;;
17259;SDS011;8746;49.230;9.220;2023-10-13T01:42:44;18.63;;;12.80;;
17259;SDS011;8746;49.230;9.220;2023-10-13T01:45:10;19.67;;;13.43;;
17259;SDS011;8746;49.230;9.220;2023-10-13T01:47:39;18.43;;;13.53;;
17259;SDS011;8746;49.230;9.220;2023-10-13T01:50:06;17.40;;;12.97;;
17259;SDS011;8746;49.230;9.220;2023-10-13T01:52:39;16.47;;;11.90;;
17259;SDS011;8746;49.230;9.220;2023-10-13T01:55:07;15.60;;;12.40;;
17259;SDS011;8746;49.230;9.220;2023-10-13T01:57:33;17.53;;;13.30;;
17259;SDS011;8746;49.230;9.220;2023-10-13T01:59:58;13.00;;;11.50;;
17259;SDS011;8746;49.230;9.220;2023-10-13T02:02:34;16.27;;;13.00;;
17259;SDS011;8746;49.230;9.220;2023-10-13T02:04:59;16.23;;;12.30;;
17259;SDS011;8746;49.230;9.220;2023-10-13T02:07:27;14.13;;;12.03;;
17259;SDS011;8746;49.230;9.220;2023-10-13T02:09:56;15.20;;;11.87;;
17259;SDS011;8746;49.230;9.220;2023-10-13T02:12:21;13.90;;;11.43;;
17259;SDS011;8746;49.230;9.220;2023-10-13T02:15:07;16.80;;;12.20;;
17259;SDS011;8746;49.230;9.220;2023-10-13T02:17:47;15.13;;;12.10;;
17259;SDS011;8746;49.230;9.220;2023-10-13T02:20:17;14.33;;;11.63;;
17259;SDS011;8746;49.230;9.220;2023-10-13T02:22:48;15.63;;;12.63;;
17259;SDS011;8746;49.230;9.220;2023-10-13T02:25:16;14.90;;;12.93;;
17259;SDS011;8746;49.230;9.220;2023-10-13T02:28:00;14.50;;;11.97;;
17259;SDS011;8746;49.230;9.220;2023-10-13T02:30:26;14.97;;;12.47;;
17259;SDS011;8746;49.230;9.220;2023-10-13T02:32:54;15.73;;;12.50;;
17259;SDS011;8746;49.230;9.220;2023-10-13T02:35:20;15.13;;;12.23;;
17259;SDS011;8746;49.230;9.220;2023-10-13T02:37:54;16.77;;;12.90;;
17259;SDS011;8746;49.230;9.220;2023-10-13T02:40:25;15.90;;;11.97;;
17259;SDS011;8746;49.230;9.220;2023-10-13T02:42:50;15.73;;;13.13;;
17259;SDS011;8746;49.230;9.220;2023-10-13T02:45:16;17.60;;;13.30;;
17259;SDS011;8746;49.230;9.220;2023-10-13T02:47:45;16.63;;;12.80;;
17259;SDS011;8746;49.230;9.220;2023-10-13T02:50:30;17.27;;;12.50;;
17259;SDS011;8746;49.230;9.220;2023-10-13T02:52:58;11.53;;;10.43;;
17259;SDS011;8746;49.230;9.220;2023-10-13T02:55:23;12.30;;;10.33;;
17259;SDS011;8746;49.230;9.220;2023-10-13T02:57:52;11.67;;;10.30;;
17259;SDS011;8746;49.230;9.220;2023-10-13T03:00:21;12.10;;;10.27;;
17259;SDS011;8746;49.230;9.220;2023-10-13T03:02:48;10.90;;;9.90;;
17259;SDS011;8746;49.230;9.220;2023-10-13T03:05:23;11.07;;;10.03;;
17259;SDS011;8746;49.230;9.220;2023-10-13T03:07:48;9.93;;;9.03;;
17259;SDS011;8746;49.230;9.220;2023-10-13T03:10:15;11.30;;;10.10;;
17259;SDS011;8746;49.230;9.220;2023-10-13T03:12:44;10.93;;;8.93;;
17259;SDS011;8746;49.230;9.220;2023-10-13T03:15:13;9.70;;;8.73;;
17259;SDS011;8746;49.230;9.220;2023-10-13T03:17:46;10.30;;;9.30;;
17259;SDS011;8746;49.230;9.220;2023-10-13T03:20:15;10.40;;;9.30;;
17259;SDS011;8746;49.230;9.220;2023-10-13T03:22:52;9.63;;;8.63;;
17259;SDS011;8746;49.230;9.220;2023-10-13T03:25:18;10.17;;;9.20;;
17259;SDS011;8746;49.230;9.220;2023-10-13T03:27:54;10.13;;;9.03;;
17259;SDS011;8746;49.230;9.220;2023-10-13T03:30:23;10.50;;;9.50;;
17259;SDS011;8746;49.230;9.220;2023-10-13T03:32:55;10.80;;;9.40;;
17259;SDS011;8746;49.230;9.220;2023-10-13T03:35:21;9.93;;;9.13;;
17259;SDS011;8746;49.230;9.220;2023-10-13T03:37:52;10.30;;;9.30;;
17259;SDS011;8746;49.230;9.220;2023-10-13T03:40:19;11.17;;;8.97;;
17259;SDS011;8746;49.230;9.220;2023-10-13T03:45:24;10.40;;;9.40;;
17259;SDS011;8746;49.230;9.220;2023-10-13T03:47:52;10.57;;;9.57;;
17259;SDS011;8746;49.230;9.220;2023-10-13T03:50:18;12.17;;;9.40;;
17259;SDS011;8746;49.230;9.220;2023-10-13T03:52:55;11.10;;;10.00;;
17259;SDS011;8746;49.230;9.220;2023-10-13T03:55:23;10.53;;;9.47;;
17259;SDS011;8746;49.230;9.220;2023-10-13T03:57:52;10.63;;;9.63;;
17259;SDS011;8746;49.230;9.220;2023-10-13T04:00:19;12.43;;;9.20;;
17259;SDS011;8746;49.230;9.220;2023-10-13T04:02:52;10.27;;;9.17;;
17259;SDS011;8746;49.230;9.220;2023-10-13T04:05:31;9.23;;;8.07;;
17259;SDS011;8746;49.230;9.220;2023-10-13T04:08:10;9.30;;;8.40;;
17259;SDS011;8746;49.230;9.220;2023-10-13T04:10:53;9.23;;;8.40;;
17259;SDS011;8746;49.230;9.220;2023-10-13T04:13:20;9.80;;;8.83;;
17259;SDS011;8746;49.230;9.220;2023-10-13T04:16:04;10.00;;;8.90;;
17259;SDS011;8746;49.230;9.220;2023-10-13T04:18:46;9.80;;;8.80;;
17259;SDS011;8746;49.230;9.220;2023-10-13T04:21:32;11.67;;;8.83;;
17259;SDS011;8746;49.230;9.220;2023-10-13T04:24:03;10.93;;;9.67;;
17259;SDS011;8746;49.230;9.220;2023-10-13T04:26:51;10.27;;;9.27;;
17259;SDS011;8746;49.230;9.220;2023-10-13T04:29:35;10.03;;;9.13;;
17259;SDS011;8746;49.230;9.220;2023-10-13T04:32:20;10.13;;;9.13;;
17259;SDS011;8746;49.230;9.220;2023-10-13T04:34:58;9.60;;;8.70;;
17259;SDS011;8746;49.230;9.220;2023-10-13T04:37:36;10.53;;;9.17;;
17259;SDS011;8746;49.230;9.220;2023-10-13T04:40:27;11.00;;;9.90;;
17259;SDS011;8746;49.230;9.220;2023-10-13T04:43:00;11.83;;;9.53;;
17259;SDS011;8746;49.230;9.220;2023-10-13T04:45:30;9.90;;;8.90;;
17259;SDS011;8746;49.230;9.220;2023-10-13T04:47:56;10.07;;;9.07;;
17259;SDS011;8746;49.230;9.220;2023-10-13T04:50:46;10.27;;;9.27;;
17259;SDS011;8746;49.230;9.220;2023-10-13T04:53:16;12.57;;;9.50;;
17259;SDS011;8746;49.230;9.220;2023-10-13T04:55:55;10.97;;;9.10;;
17259;SDS011;8746;49.230;9.220;2023-10-13T04:58:32;11.57;;;9.23;;
17259;SDS011;8746;49.230;9.220;2023-10-13T05:01:00;10.77;;;9.73;;
17259;SDS011;8746;49.230;9.220;2023-10-13T05:03:48;11.97;;;8.93;;
17259;SDS011;8746;49.230;9.220;2023-10-13T05:06:32;10.70;;;9.70;;
17259;SDS011;8746;49.230;9.220;2023-10-13T05:09:06;11.67;;;9.70;;
17259;SDS011;8746;49.230;9.220;2023-10-13T05:11:50;11.27;;;10.17;;
17259;SDS011;8746;49.230;9.220;2023-10-13T05:14:34;14.40;;;10.57;;
17259;SDS011;8746;49.230;9.220;2023-10-13T05:17:18;13.47;;;11.53;;
17259;SDS011;8746;49.230;9.220;2023-10-13T05:20:02;13.47;;;10.87;;
17259;SDS011;8746;49.230;9.220;2023-10-13T05:22:46;13.23;;;10.27;;
17259;SDS011;8746;49.230;9.220;2023-10-13T05:25:30;11.00;;;9.67;;
17259;SDS011;8746;49.230;9.220;2023-10-13T05:28:14;11.43;;;9.33;;
17259;SDS011;8746;49.230;9.220;2023-10-13T05:31:00;10.07;;;9.13;;
17259;SDS011;8746;49.230;9.220;2023-10-13T05:33:46;10.37;;;8.90;;
17259;SDS011;8746;49.230;9.220;2023-10-13T05:36:30;10.83;;;9.63;;
17259;SDS011;8746;49.230;9.220;2023-10-13T05:39:13;10.17;;;9.13;;
17259;SDS011;8746;49.230;9.220;2023-10-13T05:41:57;9.77;;;8.87;;
17259;SDS011;8746;49.230;9.220;2023-10-13T05:44:41;9.53;;;8.63;;
17259;SDS011;8746;49.230;9.220;2023-10-13T05:47:27;8.40;;;7.60;;
17259;SDS011;8746;49.230;9.220;2023-10-13T05:50:08;9.63;;;8.70;;
17259;SDS011;8746;49.230;9.220;2023-10-13T05:52:46;10.00;;;8.13;;
17259;SDS011;8746;49.230;9.220;2023-10-13T05:55:28;9.47;;;8.57;;
17259;SDS011;8746;49.230;9.220;2023-10-13T05:58:13;9.33;;;8.53;;
17259;SDS011;8746;49.230;9.220;2023-10-13T06:00:57;10.27;;;8.30;;
17259;SDS011;8746;49.230;9.220;2023-10-13T06:03:55;13.07;;;9.33;;
17259;SDS011;8746;49.230;9.220;2023-10-13T06:06:39;9.47;;;8.57;;
17259;SDS011;8746;49.230;9.220;2023-10-13T06:09:23;10.37;;;8.33;;
17259;SDS011;8746;49.230;9.220;2023-10-13T06:12:07;10.13;;;8.90;;
17259;SDS011;8746;49.230;9.220;2023-10-13T06:14:51;11.03;;;9.93;;
17259;SDS011;8746;49.230;9.220;2023-10-13T06:17:35;10.27;;;9.03;;
17259;SDS011;8746;49.230;9.220;2023-10-13T06:20:18;12.60;;;10.00;;
17259;SDS011;8746;49.230;9.220;2023-10-13T06:23:02;10.30;;;9.30;;
17259;SDS011;8746;49.230;9.220;2023-10-13T06:25:53;11.27;;;9.97;;
17259;SDS011;8746;49.230;9.220;2023-10-13T06:28:47;12.47;;;11.17;;
17259;SDS011;8746;49.230;9.220;2023-10-13T06:31:14;15.37;;;12.17;;
17259;SDS011;8746;49.230;9.220;2023-10-13T06:33:50;13.00;;;11.60;;
17259;SDS011;8746;49.230;9.220;2023-10-13T06:36:16;16.30;;;12.23;;
17259;SDS011;8746;49.230;9.220;2023-10-13T06:38:42;18.57;;;11.97;;
17259;SDS011;8746;49.230;9.220;2023-10-13T06:41:08;13.20;;;11.67;;
17259;SDS011;8746;49.230;9.220;2023-10-13T06:43:34;12.40;;;11.10;;
17259;SDS011;8746;49.230;9.220;2023-10-13T06:46:05;11.00;;;8.83;;
17259;SDS011;8746;49.230;9.220;2023-10-13T06:48:32;10.93;;;9.20;;
17259;SDS011;8746;49.230;9.220;2023-10-13T06:50:59;9.33;;;8.43;;
17259;SDS011;8746;49.230;9.220;2023-10-13T06:53:43;9.80;;;8.70;;
17259;SDS011;8746;49.230;9.220;2023-10-13T06:56:12;9.57;;;8.60;;
17259;SDS011;8746;49.230;9.220;2023-10-13T06:58:43;9.90;;;8.87;;
17259;SDS011;8746;49.230;9.220;2023-10-13T07:01:11;9.17;;;8.37;;
17259;SDS011;8746;49.230;9.220;2023-10-13T07:03:40;11.97;;;9.33;;
17259;SDS011;8746;49.230;9.220;2023-10-13T07:06:07;10.50;;;9.50;;
17259;SDS011;8746;49.230;9.220;2023-10-13T07:08:37;10.13;;;8.97;;
17259;SDS011;8746;49.230;9.220;2023-10-13T07:11:02;11.50;;;10.30;;
17259;SDS011;8746;49.230;9.220;2023-10-13T07:13:38;14.70;;;10.40;;
17259;SDS011;8746;49.230;9.220;2023-10-13T07:16:04;13.60;;;10.83;;
17259;SDS011;8746;49.230;9.220;2023-10-13T07:18:37;12.37;;;10.30;;
17259;SDS011;8746;49.230;9.220;2023-10-13T07:21:14;15.33;;;11.20;;
17259;SDS011;8746;49.230;9.220;2023-10-13T07:23:40;15.53;;;11.30;;
17259;SDS011;8746;49.230;9.220;2023-10-13T07:26:11;11.40;;;10.07;;
17259;SDS011;8746;49.230;9.220;2023-10-13T07:28:37;12.37;;;10.00;;
17259;SDS011;8746;49.230;9.220;2023-10-13T07:31:08;16.23;;;10.73;;
17259;SDS011;8746;49.230;9.220;2023-10-13T07:33:37;11.87;;;9.90;;
17259;SDS011;8746;49.230;9.220;2023-10-13T07:36:06;12.27;;;10.10;;
17259;SDS011;8746;49.230;9.220;2023-10-13T07:38:44;12.63;;;10.23;;
17259;SDS011;8746;49.230;9.220;2023-10-13T07:41:17;14.00;;;10.40;;
17259;SDS011;8746;49.230;9.220;2023-10-13T07:43:47;15.27;;;10.47;;
17259;SDS011;8746;49.230;9.220;2023-10-13T07:46:13;10.63;;;9.63;;
17259;SDS011;8746;49.230;9.220;2023-10-13T07:48:39;10.57;;;8.83;;
17259;SDS011;8746;49.230;9.220;2023-10-13T07:51:06;11.60;;;9.00;;
17259;SDS011;8746;49.230;9.220;2023-10-13T07:53:37;12.73;;;9.57;;
17259;SDS011;8746;49.230;9.220;2023-10-13T07:56:06;13.23;;;9.67;;
17259;SDS011;8746;49.230;9.220;2023-10-13T07:58:36;10.37;;;9.10;;
17259;SDS011;8746;49.230;9.220;2023-10-13T08:01:18;11.60;;;9.17;;
17259;SDS011;8746;49.230;9.220;2023-10-13T08:03:44;12.10;;;8.40;;
17259;SDS011;8746;49.230;9.220;2023-10-13T08:06:22;9.73;;;8.73;;
17259;SDS011;8746;49.230;9.220;2023-10-13T08:08:53;10.53;;;8.57;;
17259;SDS011;8746;49.230;9.220;2023-10-13T08:11:19;15.60;;;9.03;;
17259;SDS011;8746;49.230;9.220;2023-10-13T08:13:59;11.07;;;9.30;;
17259;SDS011;8746;49.230;9.220;2023-10-13T08:16:47;10.63;;;8.40;;
17259;SDS011;8746;49.230;9.220;2023-10-13T08:19:25;10.63;;;8.70;;
17259;SDS011;8746;49.230;9.220;2023-10-13T08:22:05;10.50;;;7.88;;
17259;SDS011;8746;49.230;9.220;2023-10-13T08:24:43;10.47;;;7.47;;
17259;SDS011;8746;49.230;9.220;2023-10-13T08:27:12;9.02;;;7.28;;
17259;SDS011;8746;49.230;9.220;2023-10-13T08:29:57;9.18;;;7.15;;
17259;SDS011;8746;49.230;9.220;2023-10-13T08:32:23;8.45;;;6.95;;
17259;SDS011;8746;49.230;9.220;2023-10-13T08:34:52;11.93;;;7.43;;
17259;SDS011;8746;49.230;9.220;2023-10-13T08:37:18;9.13;;;6.88;;
17259;SDS011;8746;49.230;9.220;2023-10-13T08:39:50;9.97;;;7.17;;
17259;SDS011;8746;49.230;9.220;2023-10-13T08:42:36;13.13;;;7.03;;
17259;SDS011;8746;49.230;9.220;2023-10-13T08:45:08;11.48;;;7.05;;
17259;SDS011;8746;49.230;9.220;2023-10-13T08:47:53;8.38;;;6.57;;
17259;SDS011;8746;49.230;9.220;2023-10-13T08:53:22;12.80;;;7.05;;
17259;SDS011;8746;49.230;9.220;2023-10-13T08:55:57;12.38;;;7.00;;
17259;SDS011;8746;49.230;9.220;2023-10-13T08:58:29;9.80;;;6.80;;
17259;SDS011;8746;49.230;9.220;2023-10-13T09:01:14;8.75;;;6.70;;
17259;SDS011;8746;49.230;9.220;2023-10-13T09:03:59;11.00;;;6.00;;
17259;SDS011;8746;49.230;9.220;2023-10-13T09:07:04;10.45;;;6.10;;
17259;SDS011;8746;49.230;9.220;2023-10-13T09:14:44;10.15;;;6.15;;
17259;SDS011;8746;49.230;9.220;2023-10-13T09:17:23;8.10;;;5.32;;
17259;SDS011;8746;49.230;9.220;2023-10-13T09:20:06;6.53;;;4.20;;
17259;SDS011;8746;49.230;9.220;2023-10-13T09:22:51;11.07;;;4.15;;
17259;SDS011;8746;49.230;9.220;2023-10-13T09:25:26;6.35;;;4.10;;
17259;SDS011;8746;49.230;9.220;2023-10-13T09:27:58;9.98;;;4.15;;
17259;SDS011;8746;49.230;9.220;2023-10-13T09:30:25;8.55;;;4.00;;
17259;SDS011;8746;49.230;9.220;2023-10-13T09:35:26;8.05;;;4.18;;
17259;SDS011;8746;49.230;9.220;2023-10-13T09:37:52;8.90;;;4.63;;
17259;SDS011;8746;49.230;9.220;2023-10-13T09:40:21;10.23;;;4.15;;
17259;SDS011;8746;49.230;9.220;2023-10-13T09:42:51;7.97;;;3.78;;
17259;SDS011;8746;49.230;9.220;2023-10-13T09:45:20;9.27;;;3.78;;
17259;SDS011;8746;49.230;9.220;2023-10-13T09:47:52;6.93;;;3.85;;
17259;SDS011;8746;49.230;9.220;2023-10-13T09:50:22;10.70;;;3.88;;
17259;SDS011;8746;49.230;9.220;2023-10-13T09:52:51;8.95;;;3.40;;
17259;SDS011;8746;49.230;9.220;2023-10-13T09:55:28;8.65;;;4.07;;
17259;SDS011;8746;49.230;9.220;2023-10-13T09:58:02;10.43;;;3.88;;
17259;SDS011;8746;49.230;9.220;2023-10-13T10:00:43;9.23;;;3.78;;
17259;SDS011;8746;49.230;9.220;2023-10-13T10:03:13;8.85;;;3.78;;
17259;SDS011;8746;49.230;9.220;2023-10-13T10:06:00;6.38;;;4.20;;
17259;SDS011;8746;49.230;9.220;2023-10-13T10:08:32;7.07;;;3.72;;
17259;SDS011;8746;49.230;9.220;2023-10-13T10:11:01;10.68;;;3.97;;
17259;SDS011;8746;49.230;9.220;2023-10-13T10:16:11;12.23;;;3.90;;
17259;SDS011;8746;49.230;9.220;2023-10-13T10:18:44;8.30;;;3.22;;
17259;SDS011;8746;49.230;9.220;2023-10-13T10:21:10;7.57;;;3.28;;
17259;SDS011;8746;49.230;9.220;2023-10-13T10:23:36;7.55;;;3.50;;
17259;SDS011;8746;49.230;9.220;2023-10-13T10:28:42;6.65;;;3.90;;
17259;SDS011;8746;49.230;9.220;2023-10-13T10:31:08;6.82;;;3.50;;
17259;SDS011;8746;49.230;9.220;2023-10-13T10:33:37;8.20;;;3.90;;
17259;SDS011;8746;49.230;9.220;2023-10-13T10:36:04;7.97;;;3.97;;
17259;SDS011;8746;49.230;9.220;2023-10-13T10:38:30;5.30;;;3.85;;
17259;SDS011;8746;49.230;9.220;2023-10-13T10:40:57;8.25;;;3.78;;
17259;SDS011;8746;49.230;9.220;2023-10-13T10:48:52;12.55;;;3.78;;
17259;SDS011;8746;49.230;9.220;2023-10-13T10:51:26;8.07;;;3.75;;
17259;SDS011;8746;49.230;9.220;2023-10-13T10:53:56;6.25;;;3.45;;
17259;SDS011;8746;49.230;9.220;2023-10-13T10:56:24;8.13;;;3.17;;
17259;SDS011;8746;49.230;9.220;2023-10-13T10:59:03;7.60;;;3.72;;
17259;SDS011;8746;49.230;9.220;2023-10-13T11:01:31;9.30;;;3.67;;
17259;SDS011;8746;49.230;9.220;2023-10-13T11:04:12;5.68;;;4.00;;
17259;SDS011;8746;49.230;9.220;2023-10-13T11:06:58;6.95;;;3.40;;
17259;SDS011;8746;49.230;9.220;2023-10-13T11:09:30;6.00;;;3.88;;
17259;SDS011;8746;49.230;9.220;2023-10-13T11:14:31;5.53;;;3.80;;
17259;SDS011;8746;49.230;9.220;2023-10-13T11:16:57;4.50;;;3.80;;
17259;SDS011;8746;49.230;9.220;2023-10-13T11:19:36;7.88;;;3.70;;
17259;SDS011;8746;49.230;9.220;2023-10-13T11:24:54;12.30;;;4.28;;
17259;SDS011;8746;49.230;9.220;2023-10-13T11:27:34;7.88;;;3.90;;
17259;SDS011;8746;49.230;9.220;2023-10-13T11:30:21;7.95;;;4.10;;
17259;SDS011;8746;49.230;9.220;2023-10-13T11:35:22;8.27;;;3.47;;
17259;SDS011;8746;49.230;9.220;2023-10-13T11:37:51;7.10;;;3.33;;
17259;SDS011;8746;49.230;9.220;2023-10-13T11:40:39;8.55;;;3.60;;
17259;SDS011;8746;49.230;9.220;2023-10-13T11:43:08;5.97;;;3.30;;
17259;SDS011;8746;49.230;9.220;2023-10-13T11:45:40;6.13;;;3.78;;
17259;SDS011;8746;49.230;9.220;2023-10-13T11:48:25;5.85;;;3.80;;
17259;SDS011;8746;49.230;9.220;2023-10-13T11:51:01;5.88;;;3.58;;
17259;SDS011;8746;49.230;9.220;2023-10-13T11:53:33;6.97;;;3.60;;
17259;SDS011;8746;49.230;9.220;2023-10-13T11:56:03;6.15;;;3.30;;
17259;SDS011;8746;49.230;9.220;2023-10-13T11:58:35;6.45;;;3.72;;
17259;SDS011;8746;49.230;9.220;2023-10-13T12:01:01;11.07;;;4.07;;
17259;SDS011;8746;49.230;9.220;2023-10-13T12:03:42;7.55;;;4.00;;
17259;SDS011;8746;49.230;9.220;2023-10-13T12:06:27;6.20;;;3.78;;
17259;SDS011;8746;49.230;9.220;2023-10-13T12:11:44;7.00;;;3.97;;
17259;SDS011;8746;49.230;9.220;2023-10-13T12:14:19;7.50;;;3.40;;
17259;SDS011;8746;49.230;9.220;2023-10-13T12:16:47;8.48;;;3.40;;
17259;SDS011;8746;49.230;9.220;2023-10-13T12:19:17;7.05;;;3.30;;
17259;SDS011;8746;49.230;9.220;2023-10-13T12:21:45;5.00;;;3.25;;
17259;SDS011;8746;49.230;9.220;2023-10-13T12:24:13;6.93;;;3.60;;
17259;SDS011;8746;49.230;9.220;2023-10-13T12:26:48;9.02;;;3.60;;
17259;SDS011;8746;49.230;9.220;2023-10-13T12:29:20;6.32;;;3.80;;
17259;SDS011;8746;49.230;9.220;2023-10-13T12:31:48;6.68;;;3.50;;
17259;SDS011;8746;49.230;9.220;2023-10-13T12:34:30;5.45;;;3.40;;
17259;SDS011;8746;49.230;9.220;2023-10-13T12:37:11;6.82;;;3.22;;
17259;SDS011;8746;49.230;9.220;2023-10-13T12:39:57;9.60;;;3.75;;
17259;SDS011;8746;49.230;9.220;2023-10-13T12:42:40;8.02;;;3.55;;
17259;SDS011;8746;49.230;9.220;2023-10-13T12:45:24;6.05;;;3.50;;
17259;SDS011;8746;49.230;9.220;2023-10-13T12:48:08;6.63;;;3.78;;
17259;SDS011;8746;49.230;9.220;2023-10-13T12:50:52;6.28;;;3.25;;
17259;SDS011;8746;49.230;9.220;2023-10-13T12:53:32;7.97;;;3.05;;
17259;SDS011;8746;49.230;9.220;2023-10-13T12:55:57;8.05;;;3.30;;
17259;SDS011;8746;49.230;9.220;2023-10-13T12:58:23;4.28;;;2.85;;
17259;SDS011;8746;49.230;9.220;2023-10-13T13:00:52;6.10;;;3.47;;
17259;SDS011;8746;49.230;9.220;2023-10-13T13:03:24;9.25;;;2.90;;
17259;SDS011;8746;49.230;9.220;2023-10-13T13:05:54;6.40;;;3.15;;
17259;SDS011;8746;49.230;9.220;2023-10-13T13:08:21;5.80;;;3.03;;
17259;SDS011;8746;49.230;9.220;2023-10-13T13:10:49;8.82;;;3.28;;
17259;SDS011;8746;49.230;9.220;2023-10-13T13:13:16;4.95;;;2.97;;
17259;SDS011;8746;49.230;9.220;2023-10-13T13:15:49;7.80;;;2.92;;
17259;SDS011;8746;49.230;9.220;2023-10-13T13:18:15;7.68;;;3.20;;
17259;SDS011;8746;49.230;9.220;2023-10-13T13:20:40;7.88;;;3.20;;
17259;SDS011;8746;49.230;9.220;2023-10-13T13:23:18;6.93;;;3.00;;
17259;SDS011;8746;49.230;9.220;2023-10-13T13:25:44;6.78;;;3.22;;
17259;SDS011;8746;49.230;9.220;2023-10-13T13:28:10;7.85;;;3.05;;
17259;SDS011;8746;49.230;9.220;2023-10-13T13:30:36;9.55;;;3.05;;
17259;SDS011;8746;49.230;9.220;2023-10-13T13:33:03;6.30;;;3.13;;
17259;SDS011;8746;49.230;9.220;2023-10-13T13:35:35;7.35;;;2.83;;
17259;SDS011;8746;49.230;9.220;2023-10-13T13:38:01;7.07;;;2.70;;
17259;SDS011;8746;49.230;9.220;2023-10-13T13:40:41;6.53;;;3.03;;
17259;SDS011;8746;49.230;9.220;2023-10-13T13:43:13;7.43;;;3.17;;
17259;SDS011;8746;49.230;9.220;2023-10-13T13:45:56;4.88;;;2.67;;
17259;SDS011;8746;49.230;9.220;2023-10-13T13:48:25;7.82;;;3.40;;
17259;SDS011;8746;49.230;9.220;2023-10-13T13:50:52;8.50;;;2.88;;
17259;SDS011;8746;49.230;9.220;2023-10-13T13:53:20;6.53;;;3.05;;
17259;SDS011;8746;49.230;9.220;2023-10-13T13:55:52;6.75;;;3.35;;
17259;SDS011;8746;49.230;9.220;2023-10-13T13:58:17;7.00;;;2.72;;
17259;SDS011;8746;49.230;9.220;2023-10-13T14:00:43;4.30;;;3.38;;
17259;SDS011;8746;49.230;9.220;2023-10-13T14:03:13;7.57;;;3.40;;
17259;SDS011;8746;49.230;9.220;2023-10-13T14:05:56;5.82;;;3.08;;
17259;SDS011;8746;49.230;9.220;2023-10-13T14:08:24;6.25;;;3.08;;
17259;SDS011;8746;49.230;9.220;2023-10-13T14:10:50;4.75;;;3.00;;
17259;SDS011;8746;49.230;9.220;2023-10-13T14:13:39;6.40;;;3.20;;
17259;SDS011;8746;49.230;9.220;2023-10-13T14:16:20;5.63;;;3.10;;
17259;SDS011;8746;49.230;9.220;2023-10-13T14:18:48;8.40;;;2.50;;
17259;SDS011;8746;49.230;9.220;2023-10-13T14:21:17;5.22;;;3.20;;
17259;SDS011;8746;49.230;9.220;2023-10-13T14:23:46;8.50;;;3.20;;
17259;SDS011;8746;49.230;9.220;2023-10-13T14:26:13;5.50;;;2.92;;
17259;SDS011;8746;49.230;9.220;2023-10-13T14:28:39;6.75;;;3.35;;
17259;SDS011;8746;49.230;9.220;2023-10-13T14:31:15;5.90;;;2.92;;
17259;SDS011;8746;49.230;9.220;2023-10-13T14:33:41;6.18;;;3.05;;
17259;SDS011;8746;49.230;9.220;2023-10-13T14:36:09;7.25;;;2.88;;
17259;SDS011;8746;49.230;9.220;2023-10-13T14:38:35;7.05;;;3.08;;
17259;SDS011;8746;49.230;9.220;2023-10-13T14:41:00;6.78;;;2.92;;
17259;SDS011;8746;49.230;9.220;2023-10-13T14:43:25;6.00;;;2.80;;
17259;SDS011;8746;49.230;9.220;2023-10-13T14:45:54;8.23;;;3.00;;
17259;SDS011;8746;49.230;9.220;2023-10-13T14:48:19;5.93;;;3.10;;
17259;SDS011;8746;49.230;9.220;2023-10-13T14:50:44;5.75;;;2.67;;
17259;SDS011;8746;49.230;9.220;2023-10-13T14:53:10;6.20;;;2.63;;
17259;SDS011;8746;49.230;9.220;2023-10-13T14:55:36;7.80;;;2.85;;
17259;SDS011;8746;49.230;9.220;2023-10-13T14:58:04;6.15;;;2.83;;
17259;SDS011;8746;49.230;9.220;2023-10-13T15:00:30;7.10;;;2.95;;
17259;SDS011;8746;49.230;9.220;2023-10-13T15:02:56;9.20;;;3.33;;
17259;SDS011;8746;49.230;9.220;2023-10-13T15:05:26;5.05;;;3.00;;
17259;SDS011;8746;49.230;9.220;2023-10-13T15:07:54;4.28;;;2.80;;
17259;SDS011;8746;49.230;9.220;2023-10-13T15:10:21;6.72;;;2.90;;
17259;SDS011;8746;49.230;9.220;2023-10-13T15:12:46;13.88;;;3.55;;
17259;SDS011;8746;49.230;9.220;2023-10-13T15:15:13;8.35;;;3.15;;
17259;SDS011;8746;49.230;9.220;2023-10-13T15:17:41;6.38;;;3.10;;
17259;SDS011;8746;49.230;9.220;2023-10-13T15:20:09;10.48;;;3.50;;
17259;SDS011;8746;49.230;9.220;2023-10-13T15:22:36;6.18;;;2.90;;
17259;SDS011;8746;49.230;9.220;2023-10-13T15:25:03;7.35;;;3.17;;
17259;SDS011;8746;49.230;9.220;2023-10-13T15:27:46;5.63;;;2.83;;
17259;SDS011;8746;49.230;9.220;2023-10-13T15:30:21;6.70;;;3.22;;
17259;SDS011;8746;49.230;9.220;2023-10-13T15:33:09;5.90;;;3.17;;
17259;SDS011;8746;49.230;9.220;2023-10-13T15:35:34;5.97;;;2.92;;
17259;SDS011;8746;49.230;9.220;2023-10-13T15:38:03;6.70;;;2.83;;
17259;SDS011;8746;49.230;9.220;2023-10-13T15:40:28;5.88;;;2.83;;
17259;SDS011;8746;49.230;9.220;2023-10-13T15:42:54;9.43;;;3.10;;
17259;SDS011;8746;49.230;9.220;2023-10-13T15:45:24;6.90;;;3.03;;
17259;SDS011;8746;49.230;9.220;2023-10-13T15:47:57;6.03;;;2.70;;
17259;SDS011;8746;49.230;9.220;2023-10-13T15:50:23;4.40;;;3.03;;
17259;SDS011;8746;49.230;9.220;2023-10-13T15:52:48;5.72;;;2.95;;
17259;SDS011;8746;49.230;9.220;2023-10-13T15:55:14;8.15;;;3.10;;
17259;SDS011;8746;49.230;9.220;2023-10-13T15:57:42;6.63;;;2.97;;
17259;SDS011;8746;49.230;9.220;2023-10-13T16:00:10;5.45;;;3.22;;